Time;durP1;ratioP1;P1;durP2;ratioP2;P2;SDS_P1;SDS_P2;PMS_P1;PMS_P2;Temp;Humidity;BMP_temperature;BMP_pressure;BME280_temperature;BME280_humidity;BME280_pressure;Samples;Min_cycle;Max_cycle;Signal;HPM_P1;HPM_P2
2022/03/29 00:01:16;;;;;;;47.77;26.63;;;6.50;84.20;;;;;;5053203;28;20190;-87
2022/03/29 00:03:42;;;;;;;48.03;26.97;;;6.50;84.30;;;;;;5057447;28;20178;-86
2022/03/29 00:06:08;;;;;;;44.60;25.37;;;6.50;84.20;;;;;;5056956;28;20547;-87
2022/03/29 00:08:33;;;;;;;38.17;26.47;;;6.50;84.10;;;;;;5056096;28;20213;-88
2022/03/29 00:10:59;;;;;;;39.97;26.17;;;6.50;84.20;;;;;;5074772;28;20206;-88
2022/03/29 00:13:25;;;;;;;45.67;25.77;;;6.60;84.20;;;;;;5076777;28;20232;-89
2022/03/29 00:15:50;;;;;;;48.43;27.27;;;6.50;84.30;;;;;;5058885;28;20691;-89
2022/03/29 00:18:16;;;;;;;45.07;26.50;;;6.60;84.20;;;;;;5076999;28;20183;-88
2022/03/29 00:20:41;;;;;;;45.60;27.10;;;6.50;84.30;;;;;;5076632;28;20209;-89
2022/03/29 00:23:07;;;;;;;44.60;27.30;;;6.60;84.40;;;;;;5076601;28;20170;-88
2022/03/29 00:25:33;;;;;;;49.57;27.00;;;6.60;84.50;;;;;;5058652;28;20217;-88
2022/03/29 00:27:58;;;;;;;47.47;27.10;;;6.50;84.90;;;;;;5058515;28;20201;-89
2022/03/29 00:30:24;;;;;;;50.23;28.23;;;6.50;84.90;;;;;;5058267;28;20192;-89
2022/03/29 00:32:49;;;;;;;50.40;27.00;;;6.50;85.10;;;;;;5058506;28;20187;-89
2022/03/29 00:35:15;;;;;;;46.23;28.60;;;6.50;85.30;;;;;;5076322;28;20214;-88
2022/03/29 00:37:42;;;;;;;43.40;27.17;;;6.50;85.40;;;;;;5076136;28;20183;-88
2022/03/29 00:40:10;;;;;;;55.00;29.90;;;6.50;85.30;;;;;;5076211;28;20203;-88
2022/03/29 00:42:35;;;;;;;45.13;27.43;;;6.60;85.30;;;;;;5058127;28;20176;-88
2022/03/29 00:45:01;;;;;;;45.63;27.90;;;6.50;85.30;;;;;;5076024;28;20179;-88
2022/03/29 00:47:27;;;;;;;48.73;27.87;;;6.50;85.30;;;;;;5076330;28;20226;-88
2022/03/29 00:49:52;;;;;;;45.20;27.47;;;6.60;85.30;;;;;;5058503;28;20191;-89
2022/03/29 00:52:19;;;;;;;47.00;27.87;;;6.60;85.40;;;;;;5076163;28;20217;-88
2022/03/29 00:54:46;;;;;;;48.20;26.53;;;6.50;85.30;;;;;;5075986;28;20186;-88
2022/03/29 00:57:11;;;;;;;53.83;28.47;;;6.50;85.30;;;;;;5058092;28;20274;-88
2022/03/29 00:59:39;;;;;;;49.27;26.93;;;6.60;85.20;;;;;;5058148;28;20230;-89
2022/03/29 01:02:05;;;;;;;42.97;25.20;;;6.60;85.10;;;;;;5057817;28;20698;-89
2022/03/29 01:04:31;;;;;;;43.80;26.50;;;6.60;84.90;;;;;;5057891;28;20225;-89
2022/03/29 01:06:58;;;;;;;42.13;24.33;;;6.50;84.90;;;;;;5075719;28;20175;-88
2022/03/29 01:09:25;;;;;;;41.53;23.40;;;6.60;84.50;;;;;;5057740;28;20218;-88
2022/03/29 01:11:52;;;;;;;46.77;24.63;;;6.60;84.20;;;;;;5057980;28;20186;-88
2022/03/29 01:14:22;;;;;;;44.00;22.63;;;6.70;84.00;;;;;;5060816;28;20265;-93
2022/03/29 01:19:33;;;;;;;42.03;22.07;;;6.60;83.80;;;;;;5075492;28;20703;-89
2022/03/29 01:22:01;;;;;;;38.97;22.03;;;6.70;83.40;;;;;;5075430;28;20171;-89
2022/03/29 01:24:27;;;;;;;35.93;18.83;;;6.70;83.30;;;;;;5075472;28;20217;-89
2022/03/29 01:26:56;;;;;;;45.83;21.73;;;6.70;83.00;;;;;;5075487;28;20183;-89
2022/03/29 01:29:22;;;;;;;36.47;20.57;;;6.70;82.90;;;;;;5057470;28;20191;-88
2022/03/29 01:31:49;;;;;;;40.60;20.10;;;6.70;82.80;;;;;;5075338;28;20177;-89
2022/03/29 01:34:16;;;;;;;36.10;19.37;;;6.70;82.70;;;;;;5075645;28;20171;-88
2022/03/29 01:36:42;;;;;;;35.63;19.07;;;6.70;82.70;;;;;;5057674;28;20232;-88
2022/03/29 01:39:07;;;;;;;34.03;18.50;;;6.70;82.80;;;;;;5057250;28;20288;-88
2022/03/29 01:41:33;;;;;;;28.47;16.50;;;6.70;82.80;;;;;;5057836;28;20171;-89
2022/03/29 01:43:59;;;;;;;36.03;17.40;;;6.70;82.70;;;;;;5075256;28;20178;-89
2022/03/29 01:46:25;;;;;;;32.47;18.93;;;6.70;82.70;;;;;;5057190;28;20620;-89
2022/03/29 01:48:51;;;;;;;28.40;18.70;;;6.70;82.80;;;;;;5074905;28;20205;-88
2022/03/29 01:51:17;;;;;;;32.67;17.77;;;6.80;82.70;;;;;;5057071;28;20175;-89
2022/03/29 01:53:46;;;;;;;35.33;17.10;;;6.80;82.80;;;;;;5056892;28;20174;-89
2022/03/29 01:56:11;;;;;;;29.23;17.20;;;6.80;82.90;;;;;;5056874;28;20183;-89
2022/03/29 01:58:37;;;;;;;37.97;17.33;;;6.80;83.00;;;;;;5075065;28;20178;-89
2022/03/29 02:01:03;;;;;;;40.47;18.57;;;6.80;83.10;;;;;;5074522;28;20281;-89
2022/03/29 02:03:28;;;;;;;36.03;18.50;;;6.80;83.10;;;;;;5056799;28;20270;-88
2022/03/29 02:05:54;;;;;;;35.83;17.23;;;6.80;83.30;;;;;;5074572;28;20257;-88
2022/03/29 02:08:20;;;;;;;38.40;15.13;;;6.80;83.10;;;;;;5056654;28;20729;-89
2022/03/29 02:10:45;;;;;;;33.87;14.30;;;6.80;83.10;;;;;;5074290;28;20225;-88
2022/03/29 02:13:11;;;;;;;31.73;12.90;;;6.70;82.70;;;;;;5056530;28;20266;-88
2022/03/29 02:15:38;;;;;;;28.67;12.53;;;6.70;82.50;;;;;;5074312;28;20187;-89
2022/03/29 02:18:05;;;;;;;26.33;10.00;;;6.80;81.80;;;;;;5074337;28;20175;-89
2022/03/29 02:20:30;;;;;;;20.60;9.37;;;6.60;81.30;;;;;;5056341;28;20206;-89
2022/03/29 02:23:07;;;;;;;27.30;9.43;;;6.60;80.50;;;;;;5074134;28;20179;-89
2022/03/29 02:25:34;;;;;;;26.37;9.10;;;6.50;80.40;;;;;;5055497;28;20174;-89
2022/03/29 02:28:01;;;;;;;24.73;9.13;;;6.50;80.30;;;;;;5056425;28;20210;-89
2022/03/29 02:30:26;;;;;;;24.53;8.43;;;6.50;80.00;;;;;;5056350;28;20202;-88
2022/03/29 02:32:52;;;;;;;20.13;9.03;;;6.40;79.90;;;;;;5056117;28;20180;-88
2022/03/29 02:35:18;;;;;;;23.33;7.93;;;6.30;79.90;;;;;;5056204;28;20198;-89
2022/03/29 02:37:43;;;;;;;21.03;8.13;;;6.40;79.90;;;;;;5056616;28;20188;-88
2022/03/29 02:40:11;;;;;;;24.87;8.20;;;6.30;80.10;;;;;;5056326;28;20204;-88
2022/03/29 02:42:49;;;;;;;19.90;7.60;;;6.30;80.40;;;;;;5073736;28;20257;-88
2022/03/29 02:45:24;;;;;;;26.57;8.03;;;6.20;80.50;;;;;;5055971;28;20567;-88
2022/03/29 02:47:52;;;;;;;36.13;8.07;;;6.20;80.80;;;;;;5073981;28;20564;-88
2022/03/29 02:50:19;;;;;;;26.33;7.67;;;6.10;81.10;;;;;;5055848;28;20256;-89
2022/03/29 02:52:50;;;;;;;20.90;6.63;;;6.10;81.20;;;;;;5073720;28;20211;-88
2022/03/29 02:55:18;;;;;;;27.43;7.67;;;6.00;81.20;;;;;;5055797;28;20629;-88
2022/03/29 02:57:44;;;;;;;26.77;7.10;;;5.90;81.30;;;;;;5073677;28;20566;-88
2022/03/29 03:00:12;;;;;;;23.10;7.63;;;5.90;81.50;;;;;;5055586;28;20207;-88
2022/03/29 03:02:38;;;;;;;30.47;6.53;;;5.80;81.30;;;;;;5073536;28;20235;-88
2022/03/29 03:05:04;;;;;;;25.10;8.03;;;5.80;81.20;;;;;;5055588;28;20655;-88
2022/03/29 03:07:29;;;;;;;36.73;7.00;;;5.80;81.50;;;;;;5073234;28;20206;-88
2022/03/29 03:09:55;;;;;;;22.83;7.00;;;5.70;81.60;;;;;;5055433;28;20218;-88
2022/03/29 03:12:21;;;;;;;27.13;6.00;;;5.70;81.60;;;;;;5055379;28;20182;-89
2022/03/29 03:14:48;;;;;;;26.03;6.07;;;5.60;81.70;;;;;;5055547;28;20189;-88
2022/03/29 03:17:13;;;;;;;36.37;7.37;;;5.50;81.70;;;;;;5055481;28;20270;-88
2022/03/29 03:19:39;;;;;;;34.50;7.23;;;5.50;81.70;;;;;;5055400;28;20229;-88
2022/03/29 03:22:04;;;;;;;33.90;6.43;;;5.50;81.70;;;;;;5055370;28;20276;-88
2022/03/29 03:24:30;;;;;;;36.93;6.93;;;5.50;81.90;;;;;;5073301;28;20182;-88
2022/03/29 03:26:55;;;;;;;34.00;6.17;;;5.40;81.70;;;;;;5073152;28;20203;-88
2022/03/29 03:29:21;;;;;;;35.17;6.90;;;5.30;81.70;;;;;;5073091;28;20238;-88
2022/03/29 03:31:47;;;;;;;32.27;7.33;;;5.20;81.60;;;;;;5073207;28;20261;-88
2022/03/29 03:34:12;;;;;;;38.10;6.73;;;5.20;81.90;;;;;;5055404;28;20185;-89
2022/03/29 03:36:38;;;;;;;28.50;8.07;;;5.10;82.00;;;;;;5055084;28;20181;-88
2022/03/29 03:39:03;;;;;;;32.70;6.33;;;5.10;82.20;;;;;;5055267;28;20178;-88
2022/03/29 03:41:29;;;;;;;24.83;6.30;;;5.10;82.10;;;;;;5073156;28;20240;-87
2022/03/29 03:43:54;;;;;;;27.57;7.47;;;5.00;81.90;;;;;;5073094;28;20206;-88
2022/03/29 03:46:20;;;;;;;31.00;7.17;;;5.00;81.90;;;;;;5055088;28;20182;-88
2022/03/29 03:48:45;;;;;;;33.23;7.37;;;4.80;81.90;;;;;;5055093;28;20237;-88
2022/03/29 03:51:11;;;;;;;33.17;5.77;;;4.70;82.60;;;;;;5055264;28;20193;-88
2022/03/29 03:53:37;;;;;;;30.07;6.47;;;4.60;82.80;;;;;;5055004;28;20181;-88
2022/03/29 03:56:02;;;;;;;27.60;6.07;;;4.70;82.80;;;;;;5073021;28;20254;-88
2022/03/29 03:58:28;;;;;;;27.17;6.50;;;4.70;82.50;;;;;;5054936;28;20693;-88
2022/03/29 04:00:53;;;;;;;30.73;6.77;;;4.70;82.40;;;;;;5055105;28;20284;-88
2022/03/29 04:03:19;;;;;;;29.83;6.30;;;4.60;82.40;;;;;;5055126;28;20701;-88
2022/03/29 04:05:44;;;;;;;40.57;6.77;;;4.70;82.40;;;;;;5055015;28;20174;-88
2022/03/29 04:08:10;;;;;;;35.40;5.87;;;4.70;82.30;;;;;;5054957;28;20248;-88
2022/03/29 04:10:37;;;;;;;28.97;6.17;;;4.60;82.20;;;;;;5072599;28;20209;-88
2022/03/29 04:13:03;;;;;;;24.10;6.30;;;4.60;82.30;;;;;;5055192;28;20565;-87
2022/03/29 04:15:28;;;;;;;31.43;6.53;;;4.60;82.40;;;;;;5054920;28;20554;-88
2022/03/29 04:17:54;;;;;;;29.17;6.50;;;4.50;82.40;;;;;;5054860;28;20177;-88
2022/03/29 04:20:20;;;;;;;28.30;5.23;;;4.50;82.50;;;;;;5072646;28;20209;-88
2022/03/29 04:22:45;;;;;;;37.40;6.93;;;4.50;82.50;;;;;;5054886;28;20208;-88
2022/03/29 04:25:11;;;;;;;34.70;5.77;;;4.30;82.80;;;;;;5054998;28;20185;-88
2022/03/29 04:27:37;;;;;;;39.70;5.97;;;4.30;83.10;;;;;;5055297;28;20271;-88
2022/03/29 04:30:03;;;;;;;34.27;6.53;;;4.20;83.20;;;;;;5054756;28;20678;-88
2022/03/29 04:32:29;;;;;;;35.47;5.33;;;4.10;83.80;;;;;;5072671;28;20177;-88
2022/03/29 04:34:54;;;;;;;38.43;6.73;;;3.90;84.20;;;;;;5072628;28;20169;-88
2022/03/29 04:37:20;;;;;;;32.20;5.60;;;3.90;84.50;;;;;;5054898;28;20189;-88
2022/03/29 04:39:46;;;;;;;25.80;5.40;;;4.00;84.70;;;;;;5054892;28;20625;-88
2022/03/29 04:42:12;;;;;;;22.10;6.20;;;4.10;84.30;;;;;;5072769;28;20173;-88
2022/03/29 04:44:38;;;;;;;35.07;6.83;;;4.10;84.20;;;;;;5072476;28;20628;-88
2022/03/29 04:47:04;;;;;;;28.87;6.03;;;4.10;84.10;;;;;;5054366;28;20676;-88
2022/03/29 04:49:30;;;;;;;28.37;6.23;;;4.00;83.90;;;;;;5058011;28;20291;-89
2022/03/29 04:51:55;;;;;;;30.33;5.30;;;3.80;83.80;;;;;;5076211;28;20181;-88
2022/03/29 04:54:21;;;;;;;41.67;6.80;;;3.70;84.60;;;;;;5058185;28;20178;-88
2022/03/29 04:56:47;;;;;;;44.20;6.83;;;3.70;85.20;;;;;;5076041;28;20212;-88
2022/03/29 04:59:12;;;;;;;29.00;6.00;;;3.70;85.30;;;;;;5075879;28;20189;-89
2022/03/29 05:01:39;;;;;;;34.90;8.27;;;3.80;85.30;;;;;;5075881;28;20645;-88
2022/03/29 05:04:05;;;;;;;34.83;8.50;;;3.80;85.00;;;;;;5057972;28;20179;-88
2022/03/29 05:06:31;;;;;;;28.57;6.40;;;3.60;84.80;;;;;;5075872;28;20606;-88
2022/03/29 05:08:56;;;;;;;39.93;6.57;;;3.60;85.10;;;;;;5057515;28;20250;-88
2022/03/29 05:11:22;;;;;;;31.60;5.73;;;3.60;85.90;;;;;;5076522;22;20232;-87
2022/03/29 05:13:47;;;;;;;48.67;6.33;;;3.60;86.40;;;;;;5054253;28;20185;-87
2022/03/29 05:16:13;;;;;;;34.97;6.57;;;3.60;86.50;;;;;;5054186;28;20164;-87
2022/03/29 05:18:38;;;;;;;33.03;5.57;;;3.60;86.50;;;;;;5054256;28;20622;-87
2022/03/29 05:21:04;;;;;;;40.03;6.50;;;3.70;86.50;;;;;;5054446;28;20247;-87
2022/03/29 05:23:29;;;;;;;40.80;5.60;;;3.60;86.40;;;;;;5054029;28;20188;-87
2022/03/29 05:25:55;;;;;;;37.17;6.53;;;3.60;86.60;;;;;;5054604;28;20599;-86
2022/03/29 05:28:21;;;;;;;26.23;5.63;;;3.60;86.60;;;;;;5054174;28;20697;-87
2022/03/29 05:30:46;;;;;;;34.33;6.03;;;3.70;86.70;;;;;;5054691;28;20204;-87
2022/03/29 05:33:15;;;;;;;39.37;5.47;;;3.70;86.70;;;;;;5053855;28;20176;-87
2022/03/29 05:35:43;;;;;;;34.07;5.23;;;3.80;86.60;;;;;;5054226;28;20180;-87
2022/03/29 05:38:09;;;;;;;32.53;5.80;;;3.80;86.50;;;;;;5053850;28;20207;-87
2022/03/29 05:40:35;;;;;;;42.67;6.23;;;3.80;86.50;;;;;;5053850;28;20196;-87
2022/03/29 05:43:00;;;;;;;30.40;5.17;;;3.80;86.30;;;;;;5054911;28;20674;-88
2022/03/29 05:45:28;;;;;;;31.23;5.83;;;3.90;86.20;;;;;;5053595;28;20187;-87
2022/03/29 05:50:39;;;;;;;27.60;4.97;;;3.90;86.10;;;;;;5055192;28;20568;-86
2022/03/29 05:53:05;;;;;;;40.03;6.60;;;3.90;85.90;;;;;;5053750;28;20259;-86
2022/03/29 05:55:30;;;;;;;33.87;5.43;;;4.00;85.90;;;;;;5053724;28;20609;-87
2022/03/29 05:57:56;;;;;;;28.33;4.87;;;4.00;85.80;;;;;;5054670;28;20179;-87
2022/03/29 06:00:23;;;;;;;33.80;7.37;;;4.00;85.70;;;;;;5054853;28;20286;-88
2022/03/29 06:02:49;;;;;;;21.40;4.60;;;4.10;85.70;;;;;;5054705;28;20178;-88
2022/03/29 06:05:14;;;;;;;28.00;5.47;;;4.10;85.60;;;;;;5054593;28;20180;-88
2022/03/29 06:07:40;;;;;;;31.13;5.03;;;4.20;85.60;;;;;;5054454;28;20573;-88
2022/03/29 06:10:06;;;;;;;40.50;6.37;;;4.20;85.70;;;;;;5053118;28;20577;-88
2022/03/29 06:12:33;;;;;;;28.53;4.83;;;4.20;85.80;;;;;;5054746;28;20157;-87
2022/03/29 06:15:02;;;;;;;33.17;5.03;;;4.30;85.80;;;;;;5053108;28;20195;-87
2022/03/29 06:17:28;;;;;;;32.40;5.43;;;4.30;85.60;;;;;;5052936;28;20657;-87
2022/03/29 06:19:54;;;;;;;30.50;4.93;;;4.30;85.50;;;;;;5054113;28;20234;-87
2022/03/29 06:22:20;;;;;;;31.00;5.73;;;4.40;85.40;;;;;;5053239;28;20176;-89
2022/03/29 06:24:46;;;;;;;23.53;5.13;;;4.50;85.50;;;;;;5052993;28;20222;-89
2022/03/29 06:27:11;;;;;;;30.70;5.37;;;4.50;85.20;;;;;;5052829;28;20208;-86
2022/03/29 06:29:37;;;;;;;21.10;4.70;;;4.60;85.10;;;;;;5053896;28;20173;-87
2022/03/29 06:32:04;;;;;;;33.17;4.97;;;4.70;85.20;;;;;;5052727;28;20651;-87
2022/03/29 06:34:30;;;;;;;26.83;5.30;;;4.70;85.10;;;;;;5052658;28;20174;-88
2022/03/29 06:36:56;;;;;;;33.77;5.40;;;4.70;85.20;;;;;;5053877;28;20177;-89
2022/03/29 06:39:22;;;;;;;27.27;4.90;;;4.70;85.00;;;;;;5052651;28;20781;-88
2022/03/29 06:41:48;;;;;;;31.77;5.63;;;4.80;85.10;;;;;;5053155;28;20196;-89
2022/03/29 06:44:13;;;;;;;32.17;5.33;;;4.70;85.00;;;;;;5054329;28;20204;-89
2022/03/29 06:46:39;;;;;;;29.63;5.67;;;4.80;85.00;;;;;;5052740;28;20172;-89
2022/03/29 06:49:06;;;;;;;40.13;6.33;;;4.90;85.00;;;;;;5053810;28;20199;-89
2022/03/29 06:51:32;;;;;;;30.73;4.97;;;4.90;84.80;;;;;;5053774;28;20611;-89
2022/03/29 06:53:58;;;;;;;27.17;6.50;;;5.00;84.80;;;;;;5053644;28;20213;-89
2022/03/29 06:56:26;;;;;;;34.77;5.47;;;5.10;84.70;;;;;;5053628;28;20639;-89
2022/03/29 06:58:51;;;;;;;24.93;4.30;;;5.20;84.50;;;;;;5052376;28;20173;-89
2022/03/29 07:01:17;;;;;;;29.77;5.20;;;5.20;84.50;;;;;;5052375;28;20711;-89
2022/03/29 07:03:42;;;;;;;41.47;5.50;;;5.30;84.50;;;;;;5053856;28;20170;-88
2022/03/29 07:06:08;;;;;;;29.43;5.93;;;5.30;84.40;;;;;;5052190;28;20191;-89
2022/03/29 07:08:34;;;;;;;29.97;6.50;;;5.30;84.10;;;;;;5052182;28;20207;-89
2022/03/29 07:11:16;;;;;;;34.20;5.73;;;5.30;83.90;;;;;;5052870;28;20210;-89
2022/03/29 07:13:44;;;;;;;25.93;4.70;;;5.30;83.50;;;;;;5052163;28;20209;-89
2022/03/29 07:16:10;;;;;;;25.20;4.50;;;5.40;82.90;;;;;;5052060;28;20653;-89
2022/03/29 07:18:36;;;;;;;24.43;4.43;;;5.40;82.80;;;;;;5052046;28;20185;-89
2022/03/29 07:21:01;;;;;;;23.87;4.60;;;5.50;82.70;;;;;;5052086;28;20209;-89
2022/03/29 07:23:27;;;;;;;26.93;4.80;;;5.60;82.50;;;;;;5052943;28;20705;-89
2022/03/29 07:25:53;;;;;;;23.73;4.57;;;5.70;82.50;;;;;;5051873;28;20278;-89
2022/03/29 07:28:19;;;;;;;21.37;4.23;;;5.80;81.80;;;;;;5052354;28;20225;-89
2022/03/29 07:30:45;;;;;;;28.83;8.37;;;5.70;81.50;;;;;;5050912;28;20194;-90
2022/03/29 07:33:11;;;;;;;21.00;4.97;;;5.80;81.40;;;;;;5052926;28;20714;-89
2022/03/29 07:35:37;;;;;;;20.87;4.20;;;5.80;80.40;;;;;;5051886;28;20205;-89
2022/03/29 07:38:07;;;;;;;25.07;4.67;;;5.80;80.30;;;;;;5052100;28;20202;-88
2022/03/29 07:40:34;;;;;;;29.00;5.43;;;5.90;80.20;;;;;;5053353;28;20191;-89
2022/03/29 07:42:59;;;;;;;22.97;4.97;;;6.00;80.10;;;;;;5051880;28;20178;-89
2022/03/29 07:45:25;;;;;;;19.67;4.00;;;6.00;79.80;;;;;;5051982;28;20181;-88
2022/03/29 07:47:55;;;;;;;20.30;4.13;;;6.00;79.40;;;;;;5051977;28;20293;-88
2022/03/29 07:50:22;;;;;;;20.37;3.60;;;6.10;79.40;;;;;;5051614;28;20223;-88
2022/03/29 07:52:47;;;;;;;27.57;5.23;;;6.20;79.40;;;;;;5051643;28;20179;-88
2022/03/29 07:55:13;;;;;;;18.27;3.80;;;6.20;78.90;;;;;;5051681;28;20699;-89
2022/03/29 07:57:39;;;;;;;18.03;3.63;;;6.30;79.00;;;;;;5051655;28;20261;-89
2022/03/29 08:02:52;;;;;;;20.40;3.60;;;6.40;77.20;;;;;;5052862;28;20278;-89
2022/03/29 08:05:19;;;;;;;25.70;3.47;;;6.40;76.30;;;;;;5051651;28;20185;-88
2022/03/29 08:07:45;;;;;;;22.17;4.17;;;6.50;76.10;;;;;;5051528;28;20204;-89
2022/03/29 08:10:11;;;;;;;36.53;4.43;;;6.50;75.70;;;;;;5051796;28;20261;-89
2022/03/29 08:12:37;;;;;;;23.97;3.67;;;6.60;75.30;;;;;;5051585;28;20238;-88
2022/03/29 08:15:05;;;;;;;16.80;3.53;;;6.70;74.90;;;;;;5051562;28;20164;-87
2022/03/29 08:17:32;;;;;;;33.33;5.30;;;6.60;74.80;;;;;;5052690;28;20250;-88
2022/03/29 08:19:59;;;;;;;18.40;2.57;;;6.80;75.00;;;;;;5052648;28;20234;-87
2022/03/29 08:22:25;;;;;;;12.67;3.07;;;6.90;73.30;;;;;;5052312;28;20635;-88
2022/03/29 08:24:51;;;;;;;26.37;3.40;;;7.00;73.00;;;;;;5055158;28;20222;-88
2022/03/29 08:27:16;;;;;;;16.03;3.33;;;7.10;73.10;;;;;;5055151;28;20235;-88
2022/03/29 08:29:42;;;;;;;20.73;3.53;;;7.10;72.70;;;;;;5056291;28;20638;-89
2022/03/29 08:32:08;;;;;;;16.90;3.27;;;7.20;72.90;;;;;;5055049;28;20210;-88
2022/03/29 08:34:33;;;;;;;20.13;3.47;;;7.50;71.90;;;;;;5056891;28;20178;-88
2022/03/29 08:36:59;;;;;;;15.70;3.97;;;7.70;70.30;;;;;;5056117;28;20172;-87
2022/03/29 08:39:24;;;;;;;11.07;3.07;;;7.80;68.10;;;;;;5056048;28;20179;-87
2022/03/29 08:42:02;;;;;;;19.47;3.33;;;7.90;68.40;;;;;;5055941;28;20192;-87
2022/03/29 08:44:31;;;;;;;11.60;3.23;;;7.90;68.00;;;;;;5054981;28;20622;-92
2022/03/29 08:46:57;;;;;;;19.83;3.60;;;8.10;67.90;;;;;;5054768;28;20552;-88
2022/03/29 08:49:23;;;;;;;16.50;3.37;;;8.30;68.50;;;;;;5055868;28;20180;-88
2022/03/29 08:51:49;;;;;;;14.23;3.20;;;8.30;68.00;;;;;;5054542;28;20261;-88
2022/03/29 08:54:15;;;;;;;12.10;3.10;;;8.30;67.20;;;;;;5055803;28;20251;-88
2022/03/29 08:56:41;;;;;;;16.77;3.73;;;8.20;67.00;;;;;;5055844;28;20179;-88
2022/03/29 08:59:07;;;;;;;15.70;3.07;;;8.30;65.90;;;;;;5055822;28;20183;-88
2022/03/29 09:01:33;;;;;;;16.03;2.67;;;8.30;65.90;;;;;;5055664;28;20190;-88
2022/03/29 09:04:11;;;;;;;14.97;3.43;;;8.50;65.70;;;;;;5054472;28;20192;-87
2022/03/29 09:06:58;;;;;;;19.73;3.43;;;8.60;65.60;;;;;;5055619;28;20191;-87
2022/03/29 09:09:24;;;;;;;14.57;2.67;;;8.80;65.40;;;;;;5055551;28;20182;-87
2022/03/29 09:11:53;;;;;;;9.30;2.63;;;8.70;66.20;;;;;;5056091;28;20199;-88
2022/03/29 09:14:20;;;;;;;8.53;2.43;;;8.50;65.80;;;;;;5054210;28;20218;-87
2022/03/29 09:16:46;;;;;;;9.57;2.87;;;8.70;65.40;;;;;;5054124;28;20496;-87
2022/03/29 09:19:11;;;;;;;22.73;2.70;;;9.10;64.20;;;;;;5054073;28;20242;-88
2022/03/29 09:21:45;;;;;;;24.13;2.63;;;8.90;63.10;;;;;;5055198;28;20203;-88
2022/03/29 09:24:14;;;;;;;18.07;3.33;;;9.00;64.30;;;;;;5054006;28;20261;-88
2022/03/29 09:26:45;;;;;;;14.03;2.93;;;8.90;64.20;;;;;;5055246;28;20218;-88
2022/03/29 09:29:22;;;;;;;17.63;3.23;;;9.00;64.20;;;;;;5053891;28;20192;-90
2022/03/29 09:32:03;;;;;;;14.63;2.87;;;9.20;63.30;;;;;;5055127;28;20245;-88
2022/03/29 09:34:29;;;;;;;14.63;2.23;;;9.20;63.20;;;;;;5054652;28;20152;-87
2022/03/29 09:36:54;;;;;;;15.20;2.97;;;9.20;62.60;;;;;;5053831;28;20679;-88
2022/03/29 09:39:29;;;;;;;18.27;2.93;;;9.30;61.00;;;;;;5053814;28;20207;-88
2022/03/29 09:41:59;;;;;;;11.70;3.00;;;9.30;60.60;;;;;;5053744;28;20202;-89
2022/03/29 09:44:34;;;;;;;8.83;2.47;;;9.30;61.30;;;;;;5055031;28;20179;-88
2022/03/29 09:47:04;;;;;;;26.90;2.97;;;9.30;62.00;;;;;;5054857;28;20190;-88
2022/03/29 09:49:30;;;;;;;15.80;2.60;;;9.30;59.70;;;;;;5054839;28;20169;-89
2022/03/29 09:52:16;;;;;;;26.13;3.67;;;9.30;58.30;;;;;;5054764;28;20283;-88
2022/03/29 09:55:02;;;;;;;21.10;3.63;;;9.50;58.30;;;;;;5053558;28;20649;-88
2022/03/29 09:57:42;;;;;;;27.30;3.00;;;9.70;58.70;;;;;;5053473;28;20195;-89
2022/03/29 10:00:11;;;;;;;10.80;2.90;;;9.70;58.70;;;;;;5053407;28;20270;-89
2022/03/29 10:02:40;;;;;;;6.07;2.60;;;9.80;60.20;;;;;;5053393;28;20204;-88
2022/03/29 10:05:07;;;;;;;25.13;3.57;;;9.80;58.60;;;;;;5054563;28;20172;-88
2022/03/29 10:07:49;;;;;;;17.07;3.43;;;9.80;58.90;;;;;;5054399;28;20207;-88
2022/03/29 10:10:15;;;;;;;18.80;2.33;;;9.50;59.70;;;;;;5054391;28;20203;-87
2022/03/29 10:12:40;;;;;;;17.60;3.13;;;9.30;60.20;;;;;;5053163;28;20214;-88
2022/03/29 10:15:07;;;;;;;8.27;2.73;;;9.40;60.80;;;;;;5054623;28;20175;-88
2022/03/29 10:17:33;;;;;;;14.90;2.80;;;9.40;60.50;;;;;;5054328;28;20269;-88
2022/03/29 10:20:00;;;;;;;17.07;3.80;;;9.70;59.40;;;;;;5054216;28;20223;-88
2022/03/29 10:22:25;;;;;;;10.43;1.97;;;10.00;60.70;;;;;;5052915;28;20648;-88
2022/03/29 10:24:53;;;;;;;16.43;3.20;;;9.90;58.40;;;;;;5052807;28;20168;-88
2022/03/29 10:27:20;;;;;;;9.70;2.50;;;10.20;58.40;;;;;;5053977;28;20164;-88
2022/03/29 10:29:46;;;;;;;5.97;2.07;;;10.60;58.60;;;;;;5052775;28;20168;-87
2022/03/29 10:32:29;;;;;;;14.80;2.93;;;10.60;56.30;;;;;;5053916;28;20174;-87
2022/03/29 10:35:08;;;;;;;12.17;2.53;;;10.60;55.40;;;;;;5052714;28;20167;-88
2022/03/29 10:37:56;;;;;;;15.83;2.87;;;10.40;57.70;;;;;;5053335;28;20164;-88
2022/03/29 10:40:39;;;;;;;8.83;2.10;;;10.70;55.90;;;;;;5052571;28;20195;-88
2022/03/29 10:43:25;;;;;;;11.80;2.07;;;10.70;56.50;;;;;;5052692;28;20638;-88
2022/03/29 10:45:50;;;;;;;14.33;2.30;;;10.80;53.30;;;;;;5051652;28;20638;-88
2022/03/29 10:48:17;;;;;;;16.27;2.87;;;10.50;56.70;;;;;;5052631;28;20203;-88
2022/03/29 10:50:54;;;;;;;13.83;2.53;;;10.40;57.50;;;;;;5054068;28;20227;-88
2022/03/29 10:53:32;;;;;;;11.27;2.73;;;10.80;57.60;;;;;;5052380;28;20163;-88
2022/03/29 10:56:15;;;;;;;8.07;2.10;;;10.80;54.00;;;;;;5052287;28;20550;-87
2022/03/29 10:59:02;;;;;;;14.73;2.77;;;10.80;54.50;;;;;;5053428;28;20190;-88
2022/03/29 11:01:29;;;;;;;10.87;3.13;;;10.60;54.30;;;;;;5052063;28;20290;-88
2022/03/29 11:04:01;;;;;;;18.10;3.03;;;10.70;55.90;;;;;;5053311;28;20175;-87
2022/03/29 11:06:28;;;;;;;9.83;2.83;;;11.00;54.90;;;;;;5053623;28;20519;-88
2022/03/29 11:09:05;;;;;;;11.00;2.77;;;11.20;53.80;;;;;;5053183;28;20200;-88
2022/03/29 11:11:51;;;;;;;16.53;2.70;;;10.90;53.30;;;;;;5160334;22;20228;-87
2022/03/29 11:14:39;;;;;;;15.27;3.07;;;10.80;54.10;;;;;;5058119;28;20183;-88
2022/03/29 11:17:04;;;;;;;9.50;2.50;;;10.90;55.50;;;;;;5064392;28;20305;-89
2022/03/29 11:19:48;;;;;;;8.23;2.43;;;11.20;54.70;;;;;;5056848;28;20207;-89
2022/03/29 11:22:29;;;;;;;12.03;2.70;;;11.30;54.60;;;;;;5053812;28;20223;-88
2022/03/29 11:24:59;;;;;;;10.20;2.93;;;11.10;55.10;;;;;;5053824;28;20301;-89
2022/03/29 11:27:34;;;;;;;12.43;2.53;;;11.20;53.50;;;;;;5052618;28;20207;-89
2022/03/29 11:30:02;;;;;;;13.83;2.30;;;11.50;51.60;;;;;;5053008;28;20191;-88
2022/03/29 11:32:29;;;;;;;6.70;2.60;;;11.30;53.10;;;;;;5052362;28;20267;-90
2022/03/29 11:34:57;;;;;;;12.47;2.37;;;11.50;52.50;;;;;;5052479;28;20259;-88
2022/03/29 11:37:43;;;;;;;10.20;2.40;;;11.50;53.20;;;;;;5052459;28;20174;-88
2022/03/29 11:40:10;;;;;;;9.93;2.30;;;11.30;52.50;;;;;;5052542;28;20160;-89
2022/03/29 11:42:53;;;;;;;10.77;2.37;;;11.50;52.40;;;;;;5052389;28;20176;-88
2022/03/29 11:45:26;;;;;;;13.50;2.60;;;11.70;51.90;;;;;;5053209;28;20160;-89
2022/03/29 11:47:54;;;;;;;10.27;3.30;;;11.90;51.00;;;;;;5052707;28;20287;-88
2022/03/29 11:50:53;;;;;;;9.43;2.73;;;11.60;51.00;;;;;;5051881;28;20553;-89
2022/03/29 11:53:34;;;;;;;11.30;2.73;;;12.10;52.00;;;;;;5052556;28;20164;-88
2022/03/29 11:56:13;;;;;;;9.27;2.60;;;12.10;49.00;;;;;;5053060;28;20236;-90
2022/03/29 11:58:40;;;;;;;11.07;3.03;;;12.10;51.30;;;;;;5055946;28;20168;-89
2022/03/29 12:01:13;;;;;;;9.57;2.67;;;11.60;51.40;;;;;;5055780;28;20202;-90
2022/03/29 12:03:51;;;;;;;8.53;2.37;;;11.40;52.30;;;;;;5055893;28;20160;-89
2022/03/29 12:06:18;;;;;;;10.37;3.53;;;11.40;52.90;;;;;;5056951;28;20164;-90
2022/03/29 12:08:59;;;;;;;13.70;2.77;;;11.70;51.50;;;;;;5055862;28;20270;-90
2022/03/29 12:11:26;;;;;;;12.83;2.73;;;11.40;51.50;;;;;;5055530;28;20214;-89
2022/03/29 12:14:11;;;;;;;11.63;2.67;;;11.40;54.30;;;;;;5056716;28;20175;-89
2022/03/29 12:16:41;;;;;;;10.23;2.70;;;11.30;54.80;;;;;;5055511;28;20168;-89
2022/03/29 12:19:12;;;;;;;11.90;2.70;;;11.00;54.90;;;;;;5055521;28;20258;-90
2022/03/29 12:21:40;;;;;;;15.53;3.53;;;11.10;56.10;;;;;;5055362;28;20219;-89
2022/03/29 12:24:09;;;;;;;14.67;2.60;;;11.20;54.90;;;;;;5055533;28;20586;-90
2022/03/29 12:26:43;;;;;;;13.10;2.40;;;10.90;54.90;;;;;;5055310;28;20176;-90
2022/03/29 12:29:14;;;;;;;15.77;2.63;;;11.70;56.30;;;;;;5056667;28;20193;-89
2022/03/29 12:31:41;;;;;;;13.17;2.50;;;11.30;54.60;;;;;;5056492;28;20188;-89
2022/03/29 12:34:07;;;;;;;18.60;3.30;;;11.00;55.90;;;;;;5055380;28;20172;-89
2022/03/29 12:36:33;;;;;;;23.20;4.00;;;10.90;56.70;;;;;;5056541;28;20175;-89
2022/03/29 12:39:04;;;;;;;13.97;2.97;;;11.10;56.40;;;;;;5056390;28;20179;-90
2022/03/29 12:41:41;;;;;;;12.87;3.00;;;11.30;57.70;;;;;;5055125;28;20196;-90
2022/03/29 12:44:15;;;;;;;14.60;2.77;;;11.00;58.40;;;;;;5055038;28;20195;-90
2022/03/29 12:46:45;;;;;;;12.20;3.10;;;11.20;57.00;;;;;;5056183;28;20190;-89
2022/03/29 12:49:10;;;;;;;15.50;3.00;;;10.90;57.00;;;;;;5054924;28;20208;-89
2022/03/29 12:51:38;;;;;;;9.10;2.00;;;11.20;59.00;;;;;;5054734;28;20283;-89
2022/03/29 12:54:06;;;;;;;12.03;2.57;;;11.00;56.90;;;;;;5054995;28;20172;-88
2022/03/29 12:56:58;;;;;;;14.63;2.70;;;11.50;55.50;;;;;;5055191;28;20180;-89